Time;durP1;ratioP1;P1;durP2;ratioP2;P2;SDS_P1;SDS_P2;PMS_P1;PMS_P2;Temp;Humidity;BMP_temperature;BMP_pressure;BME280_temperature;BME280_humidity;BME280_pressure;Samples;Min_cycle;Max_cycle;Signal;HPM_P1;HPM_P2
2022/02/24 00:00:09;;;;;;;0.73;0.73;;;;;;;;;;5023165;28;20041;-86
2022/02/24 00:02:35;;;;;;;0.77;0.77;;;;;;;;;;5022965;28;20029;-86
2022/02/24 00:05:01;;;;;;;0.70;0.70;;;;;;;;;;5023417;28;20400;-84
2022/02/24 00:07:27;;;;;;;0.87;0.87;;;;;;;;;;5007454;28;20029;-80
2022/02/24 00:09:53;;;;;;;0.90;0.90;;;;;;;;;;5023355;28;20034;-80
2022/02/24 00:12:20;;;;;;;1.00;1.00;;;;;;;;;;5022700;28;20148;-79
2022/02/24 00:14:46;;;;;;;0.90;0.90;;;;;;;;;;5018704;28;20033;-80
2022/02/24 00:17:12;;;;;;;0.90;0.90;;;;;;;;;;5021657;28;20029;-80
2022/02/24 00:19:39;;;;;;;0.90;0.90;;;;;;;;;;5022699;28;20033;-80
2022/02/24 00:22:05;;;;;;;0.70;0.70;;;;;;;;;;5023117;28;20537;-80
2022/02/24 00:24:31;;;;;;;1.00;1.00;;;;;;;;;;5021646;28;20107;-80
2022/02/24 00:26:57;;;;;;;0.70;0.70;;;;;;;;;;5022504;28;20794;-80
2022/02/24 00:29:23;;;;;;;0.80;0.80;;;;;;;;;;5022920;28;20112;-80
2022/02/24 00:31:49;;;;;;;0.80;0.80;;;;;;;;;;5022891;28;20026;-80
2022/02/24 00:34:16;;;;;;;0.70;0.70;;;;;;;;;;5022369;28;20033;-80
2022/02/24 00:36:42;;;;;;;0.60;0.60;;;;;;;;;;5023254;28;20049;-80
2022/02/24 00:39:08;;;;;;;0.80;0.80;;;;;;;;;;5026516;28;20048;-80
2022/02/24 00:41:34;;;;;;;0.70;0.70;;;;;;;;;;5029441;28;20026;-80
2022/02/24 00:44:00;;;;;;;0.70;0.70;;;;;;;;;;5022624;28;20845;-80
2022/02/24 00:46:26;;;;;;;0.70;0.70;;;;;;;;;;5022574;28;20041;-80
2022/02/24 00:48:52;;;;;;;0.90;0.90;;;;;;;;;;5022930;28;20544;-80
2022/02/24 00:51:19;;;;;;;0.70;0.70;;;;;;;;;;5022254;28;20017;-80
2022/02/24 00:53:45;;;;;;;0.60;0.60;;;;;;;;;;5022196;28;20519;-80
2022/02/24 00:56:11;;;;;;;0.80;0.80;;;;;;;;;;5020620;28;20014;-80
2022/02/24 00:58:38;;;;;;;0.65;0.65;;;;;;;;;;5022339;28;20600;-79
2022/02/24 01:01:04;;;;;;;0.70;0.70;;;;;;;;;;5022620;28;20038;-79
2022/02/24 01:03:30;;;;;;;0.52;0.52;;;;;;;;;;5022862;28;20033;-78
2022/02/24 01:05:56;;;;;;;0.70;0.70;;;;;;;;;;5022126;28;20120;-85
2022/02/24 01:08:22;;;;;;;0.70;0.70;;;;;;;;;;5021992;28;20029;-83
2022/02/24 01:10:48;;;;;;;0.70;0.70;;;;;;;;;;5022349;28;20113;-84
2022/02/24 01:13:14;;;;;;;0.70;0.70;;;;;;;;;;5022506;28;20504;-84
2022/02/24 01:15:42;;;;;;;0.60;0.60;;;;;;;;;;5020903;28;20048;-85
2022/02/24 01:18:10;;;;;;;0.70;0.70;;;;;;;;;;5021944;28;20041;-87
2022/02/24 01:20:37;;;;;;;0.77;0.77;;;;;;;;;;5021955;28;20049;-86
2022/02/24 01:23:04;;;;;;;0.60;0.60;;;;;;;;;;5022043;28;20044;-87
2022/02/24 01:25:32;;;;;;;0.70;0.70;;;;;;;;;;5022122;28;20808;-87
2022/02/24 01:27:58;;;;;;;1.00;1.00;;;;;;;;;;5034421;28;20068;-87
2022/02/24 01:30:24;;;;;;;0.70;0.70;;;;;;;;;;5026952;28;20033;-87
2022/02/24 01:32:50;;;;;;;0.67;0.67;;;;;;;;;;5025580;28;20029;-88
2022/02/24 01:35:16;;;;;;;0.70;0.70;;;;;;;;;;5032133;28;20421;-88
2022/02/24 01:37:42;;;;;;;0.70;0.70;;;;;;;;;;5025120;28;20052;-88
2022/02/24 01:40:09;;;;;;;0.60;0.60;;;;;;;;;;5025475;28;20682;-87
2022/02/24 01:42:35;;;;;;;0.60;0.60;;;;;;;;;;5033493;28;20119;-87
2022/02/24 01:45:01;;;;;;;0.68;0.68;;;;;;;;;;5028838;28;20595;-87
2022/02/24 01:47:27;;;;;;;0.60;0.60;;;;;;;;;;5025496;28;20026;-87
2022/02/24 01:49:53;;;;;;;0.60;0.60;;;;;;;;;;5024905;28;20308;-87
2022/02/24 01:52:19;;;;;;;0.50;0.50;;;;;;;;;;5025327;28;20061;-88
2022/02/24 01:54:48;;;;;;;0.60;0.60;;;;;;;;;;5025667;28;20393;-87
2022/02/24 01:57:14;;;;;;;0.60;0.60;;;;;;;;;;5024451;28;20276;-86
2022/02/24 01:59:40;;;;;;;0.52;0.52;;;;;;;;;;5024718;28;20053;-86
2022/02/24 02:02:06;;;;;;;0.70;0.70;;;;;;;;;;5024819;28;20056;-87
2022/02/24 02:04:33;;;;;;;0.60;0.60;;;;;;;;;;5024730;28;20140;-87
2022/02/24 02:06:59;;;;;;;0.68;0.68;;;;;;;;;;5026063;28;20036;-86
2022/02/24 02:09:25;;;;;;;0.52;0.52;;;;;;;;;;5025262;28;20033;-87
2022/02/24 02:11:52;;;;;;;0.60;0.60;;;;;;;;;;5024786;28;20033;-86
2022/02/24 02:14:18;;;;;;;0.52;0.52;;;;;;;;;;5024847;28;20529;-86
2022/02/24 02:16:44;;;;;;;0.52;0.52;;;;;;;;;;5025130;28;20398;-86
2022/02/24 02:19:10;;;;;;;0.60;0.60;;;;;;;;;;5025365;28;20037;-88
2022/02/24 02:21:37;;;;;;;0.50;0.50;;;;;;;;;;5025419;28;20034;-89
2022/02/24 02:24:03;;;;;;;0.50;0.50;;;;;;;;;;5007149;28;20505;-88
2022/02/24 02:26:31;;;;;;;0.60;0.60;;;;;;;;;;5025028;28;20021;-88
2022/02/24 02:28:57;;;;;;;0.60;0.60;;;;;;;;;;5025150;28;20025;-87
2022/02/24 02:31:24;;;;;;;2.92;2.83;;;;;;;;;;5025110;28;23315;-88
2022/02/24 02:33:50;;;;;;;0.82;0.82;;;;;;;;;;5032457;28;20156;-83
2022/02/24 02:36:16;;;;;;;1.40;1.40;;;;;;;;;;5025441;28;20026;-84
2022/02/24 02:38:42;;;;;;;0.60;0.60;;;;;;;;;;5024782;28;20140;-84
2022/02/24 02:41:08;;;;;;;0.80;0.80;;;;;;;;;;5023774;28;20025;-83
2022/02/24 02:43:34;;;;;;;0.88;0.88;;;;;;;;;;5024794;28;20809;-83
2022/02/24 02:46:00;;;;;;;0.70;0.70;;;;;;;;;;5025507;28;20040;-83
2022/02/24 02:48:26;;;;;;;0.70;0.70;;;;;;;;;;5024567;28;20147;-83
2022/02/24 02:50:52;;;;;;;0.45;0.45;;;;;;;;;;5024653;28;20536;-83
2022/02/24 02:53:18;;;;;;;0.60;0.60;;;;;;;;;;5024545;28;20041;-83
2022/02/24 02:55:44;;;;;;;0.60;0.60;;;;;;;;;;5024650;28;20028;-83
2022/02/24 02:58:10;;;;;;;0.50;0.50;;;;;;;;;;5024647;28;20049;-84
2022/02/24 03:00:36;;;;;;;0.60;0.60;;;;;;;;;;5025357;28;20041;-84
2022/02/24 03:03:02;;;;;;;0.50;0.50;;;;;;;;;;5024499;28;20553;-84
2022/02/24 03:05:28;;;;;;;0.70;0.70;;;;;;;;;;5024425;28;20104;-83
2022/02/24 03:07:54;;;;;;;0.70;0.70;;;;;;;;;;5021316;28;20328;-83
2022/02/24 03:10:20;;;;;;;0.63;0.63;;;;;;;;;;5024348;28;20039;-83
2022/02/24 03:12:46;;;;;;;0.68;0.68;;;;;;;;;;5024752;28;20072;-83
2022/02/24 03:15:13;;;;;;;0.50;0.50;;;;;;;;;;5023890;28;20438;-84
2022/02/24 03:17:39;;;;;;;;;;;;;;;;;;5023950;28;20033;-84
2022/02/24 03:20:06;;;;;;;0.70;0.70;;;;;;;;;;5023544;28;20282;-84
2022/02/24 03:22:32;;;;;;;0.60;0.60;;;;;;;;;;5023516;28;20029;-84
2022/02/24 03:24:58;;;;;;;0.67;0.67;;;;;;;;;;5020644;28;20053;-84
2022/02/24 03:27:24;;;;;;;1.00;1.00;;;;;;;;;;5023744;28;20816;-83
2022/02/24 03:29:50;;;;;;;0.60;0.60;;;;;;;;;;5023652;28;20036;-83
2022/02/24 03:32:16;;;;;;;0.80;0.80;;;;;;;;;;5019567;28;20029;-84
2022/02/24 03:34:44;;;;;;;0.60;0.60;;;;;;;;;;5032522;28;20029;-84
2022/02/24 03:37:10;;;;;;;0.60;0.60;;;;;;;;;;5023473;28;20025;-84
2022/02/24 03:39:36;;;;;;;0.70;0.70;;;;;;;;;;5023695;28;20041;-84
2022/02/24 03:42:03;;;;;;;0.60;0.60;;;;;;;;;;5023085;28;20022;-83
2022/02/24 03:44:29;;;;;;;0.80;0.80;;;;;;;;;;5019180;28;20098;-85
2022/02/24 03:46:55;;;;;;;0.70;0.70;;;;;;;;;;5023471;28;20021;-85
2022/02/24 03:49:21;;;;;;;0.63;0.63;;;;;;;;;;5023030;28;20429;-85
2022/02/24 03:51:47;;;;;;;0.70;0.70;;;;;;;;;;5023671;28;20026;-88
2022/02/24 03:54:13;;;;;;;0.60;0.60;;;;;;;;;;5023230;28;20025;-86
2022/02/24 03:56:39;;;;;;;0.50;0.50;;;;;;;;;;5023162;28;20022;-87
2022/02/24 03:59:05;;;;;;;0.60;0.60;;;;;;;;;;5023050;28;20053;-86
2022/02/24 04:01:31;;;;;;;0.70;0.70;;;;;;;;;;5021341;28;20303;-86
2022/02/24 04:03:57;;;;;;;0.90;0.90;;;;;;;;;;5019558;28;20029;-89
2022/02/24 04:06:23;;;;;;;0.52;0.52;;;;;;;;;;5023317;28;20040;-88
2022/02/24 04:08:49;;;;;;;0.60;0.60;;;;;;;;;;5023191;28;20033;-88
2022/02/24 04:11:15;;;;;;;0.60;0.60;;;;;;;;;;5023109;28;20061;-88
2022/02/24 04:13:41;;;;;;;0.60;0.60;;;;;;;;;;5022549;28;20120;-88
2022/02/24 04:16:07;;;;;;;0.60;0.60;;;;;;;;;;5023002;28;20037;-88
2022/02/24 04:18:33;;;;;;;0.70;0.70;;;;;;;;;;5022149;28;20083;-88
2022/02/24 04:20:59;;;;;;;0.60;0.60;;;;;;;;;;5022719;28;20272;-88
2022/02/24 04:23:26;;;;;;;0.60;0.60;;;;;;;;;;5023268;28;20034;-85
2022/02/24 04:25:52;;;;;;;0.60;0.60;;;;;;;;;;5022614;28;20029;-86
2022/02/24 04:28:18;;;;;;;0.77;0.77;;;;;;;;;;5022203;28;20524;-86
2022/02/24 04:30:44;;;;;;;0.70;0.70;;;;;;;;;;5022909;28;20091;-85
2022/02/24 04:33:10;;;;;;;0.52;0.52;;;;;;;;;;5024609;28;20033;-86
2022/02/24 04:35:36;;;;;;;0.68;0.68;;;;;;;;;;5029599;28;20856;-84
2022/02/24 04:38:03;;;;;;;0.70;0.70;;;;;;;;;;5022876;28;20134;-86
2022/02/24 04:40:29;;;;;;;0.50;0.50;;;;;;;;;;5022418;28;20048;-85
2022/02/24 04:42:55;;;;;;;0.73;0.73;;;;;;;;;;5023161;28;20025;-86
2022/02/24 04:45:21;;;;;;;1.05;1.05;;;;;;;;;;5017984;28;20029;-86
2022/02/24 04:47:47;;;;;;;0.80;0.80;;;;;;;;;;5021192;28;20744;-87
2022/02/24 04:50:13;;;;;;;0.70;0.70;;;;;;;;;;5022245;28;20026;-87
2022/02/24 04:52:40;;;;;;;0.60;0.60;;;;;;;;;;5022251;28;20025;-87
2022/02/24 04:55:07;;;;;;;0.60;0.60;;;;;;;;;;5022582;28;20029;-88
2022/02/24 04:57:33;;;;;;;0.50;0.50;;;;;;;;;;5022406;28;20045;-88
2022/02/24 04:59:59;;;;;;;0.70;0.70;;;;;;;;;;5021984;28;20037;-87
2022/02/24 05:02:26;;;;;;;0.93;0.93;;;;;;;;;;5021736;28;20036;-84
2022/02/24 05:04:52;;;;;;;0.63;0.63;;;;;;;;;;5025627;28;20358;-84
2022/02/24 05:07:18;;;;;;;0.63;0.63;;;;;;;;;;5026479;28;20500;-80
2022/02/24 05:09:44;;;;;;;0.77;0.77;;;;;;;;;;5027031;28;20025;-80
2022/02/24 05:12:10;;;;;;;0.70;0.70;;;;;;;;;;5026109;28;20044;-80
2022/02/24 05:14:36;;;;;;;0.60;0.60;;;;;;;;;;5026217;28;20288;-80
2022/02/24 05:17:02;;;;;;;0.50;0.50;;;;;;;;;;5021628;28;20033;-81
2022/02/24 05:19:28;;;;;;;0.50;0.50;;;;;;;;;;5025944;28;20041;-80
2022/02/24 05:21:55;;;;;;;0.60;0.60;;;;;;;;;;5026727;28;20034;-80
2022/02/24 05:24:21;;;;;;;0.60;0.60;;;;;;;;;;5026232;28;20390;-81
2022/02/24 05:26:47;;;;;;;0.60;0.60;;;;;;;;;;5026167;28;20025;-80
2022/02/24 05:29:13;;;;;;;0.60;0.60;;;;;;;;;;5025724;28;20032;-81
2022/02/24 05:31:39;;;;;;;0.70;0.70;;;;;;;;;;5023743;28;20040;-80
2022/02/24 05:34:05;;;;;;;0.70;0.70;;;;;;;;;;5033800;28;20408;-80
2022/02/24 05:36:31;;;;;;;0.55;0.55;;;;;;;;;;5025979;28;20041;-79
2022/02/24 05:38:57;;;;;;;0.50;0.50;;;;;;;;;;5025945;28;20829;-80
2022/02/24 05:41:24;;;;;;;0.60;0.60;;;;;;;;;;5025756;28;20033;-81
2022/02/24 05:43:51;;;;;;;0.70;0.70;;;;;;;;;;5025554;28;20056;-80
2022/02/24 05:46:17;;;;;;;0.70;0.70;;;;;;;;;;5025688;28;20113;-80
2022/02/24 05:48:44;;;;;;;0.60;0.60;;;;;;;;;;5026305;28;20112;-81
2022/02/24 05:51:11;;;;;;;0.80;0.80;;;;;;;;;;5025009;28;20052;-81
2022/02/24 05:53:36;;;;;;;;;;;;;;;;;;5026139;28;20041;-81
2022/02/24 05:56:03;;;;;;;0.60;0.60;;;;;;;;;;5025442;28;19923;-80
2022/02/24 05:58:29;;;;;;;0.50;0.50;;;;;;;;;;5024881;28;20061;-82
2022/02/24 06:00:55;;;;;;;0.60;0.60;;;;;;;;;;5025397;28;20808;-81
2022/02/24 06:03:21;;;;;;;0.60;0.60;;;;;;;;;;5025373;28;20044;-81
2022/02/24 06:05:47;;;;;;;0.60;0.60;;;;;;;;;;5024212;28;20029;-80
2022/02/24 06:08:13;;;;;;;0.63;0.63;;;;;;;;;;5024764;28;20034;-79
2022/02/24 06:10:39;;;;;;;0.60;0.60;;;;;;;;;;5025113;28;20628;-81
2022/02/24 06:13:05;;;;;;;0.60;0.60;;;;;;;;;;5023418;28;20041;-81
2022/02/24 06:15:31;;;;;;;0.63;0.63;;;;;;;;;;5024674;28;20026;-81
2022/02/24 06:17:57;;;;;;;0.55;0.55;;;;;;;;;;5024615;28;20053;-81
2022/02/24 06:20:23;;;;;;;0.60;0.60;;;;;;;;;;5019983;28;20037;-79
2022/02/24 06:22:49;;;;;;;0.60;0.60;;;;;;;;;;5020995;28;20899;-79
2022/02/24 06:25:15;;;;;;;0.60;0.60;;;;;;;;;;5021940;28;20171;-82
2022/02/24 06:27:41;;;;;;;0.57;0.57;;;;;;;;;;5021831;28;20036;-82
2022/02/24 06:30:08;;;;;;;0.85;0.85;;;;;;;;;;5020255;28;20096;-82
2022/02/24 06:32:37;;;;;;;0.60;0.60;;;;;;;;;;5019781;28;20044;-83
2022/02/24 06:35:03;;;;;;;0.60;0.60;;;;;;;;;;5020900;28;20404;-82
2022/02/24 06:37:30;;;;;;;0.50;0.50;;;;;;;;;;5019854;28;20029;-82
2022/02/24 06:39:56;;;;;;;0.60;0.60;;;;;;;;;;5020960;28;20152;-81
2022/02/24 06:42:22;;;;;;;0.70;0.70;;;;;;;;;;5018923;28;20030;-81
2022/02/24 06:44:48;;;;;;;0.60;0.60;;;;;;;;;;5021707;28;20041;-79
2022/02/24 06:47:14;;;;;;;0.55;0.55;;;;;;;;;;5015228;28;20462;-80
2022/02/24 06:49:41;;;;;;;1.10;1.10;;;;;;;;;;5024380;28;20448;-81
2022/02/24 06:52:07;;;;;;;0.90;0.90;;;;;;;;;;5026132;28;20087;-81
2022/02/24 06:54:33;;;;;;;0.70;0.70;;;;;;;;;;5026755;28;20033;-80
2022/02/24 06:57:00;;;;;;;0.50;0.50;;;;;;;;;;5023841;28;20037;-82
2022/02/24 06:59:27;;;;;;;0.60;0.60;;;;;;;;;;5023758;28;20050;-84
2022/02/24 07:01:53;;;;;;;0.60;0.60;;;;;;;;;;5024348;28;20025;-84
2022/02/24 07:04:19;;;;;;;0.60;0.60;;;;;;;;;;5023686;28;20057;-84
2022/02/24 07:06:47;;;;;;;0.73;0.73;;;;;;;;;;5024906;28;20851;-81
2022/02/24 07:09:14;;;;;;;0.65;0.65;;;;;;;;;;5022711;28;20025;-81
2022/02/24 07:11:40;;;;;;;0.50;0.50;;;;;;;;;;5022776;28;20060;-81
2022/02/24 07:14:06;;;;;;;0.63;0.63;;;;;;;;;;5021128;28;20505;-81
2022/02/24 07:16:33;;;;;;;0.83;0.83;;;;;;;;;;5019983;28;20033;-80
2022/02/24 07:19:00;;;;;;;0.60;0.60;;;;;;;;;;5024095;28;20082;-80
2022/02/24 07:21:26;;;;;;;;;;;;;;;;;;5024440;28;20124;-79
2022/02/24 07:23:52;;;;;;;0.70;0.70;;;;;;;;;;5023905;28;20000;-81
2022/02/24 07:26:18;;;;;;;0.60;0.60;;;;;;;;;;5022588;28;20052;-80
2022/02/24 07:28:45;;;;;;;0.52;0.52;;;;;;;;;;5023039;28;20021;-83
2022/02/24 07:31:15;;;;;;;0.70;0.70;;;;;;;;;;5021194;28;20047;-80
2022/02/24 07:33:41;;;;;;;0.70;0.70;;;;;;;;;;5023205;28;21036;-87
2022/02/24 07:36:08;;;;;;;0.70;0.70;;;;;;;;;;5023788;28;20504;-84
2022/02/24 07:38:34;;;;;;;0.75;0.75;;;;;;;;;;5023285;28;20047;-84
2022/02/24 07:41:00;;;;;;;0.70;0.70;;;;;;;;;;5023109;28;20029;-84
2022/02/24 07:43:26;;;;;;;0.70;0.70;;;;;;;;;;5023468;28;20848;-83
2022/02/24 07:45:52;;;;;;;0.70;0.70;;;;;;;;;;5021737;28;20025;-82
2022/02/24 07:48:18;;;;;;;0.60;0.60;;;;;;;;;;5019489;28;20390;-83
2022/02/24 07:50:44;;;;;;;0.73;0.73;;;;;;;;;;5022231;28;20099;-83
2022/02/24 07:53:10;;;;;;;0.73;0.73;;;;;;;;;;5021732;28;20067;-83
2022/02/24 07:55:38;;;;;;;1.48;1.48;;;;;;;;;;5020197;28;20567;-83
2022/02/24 07:58:04;;;;;;;1.85;1.85;;;;;;;;;;5022978;28;20049;-84
2022/02/24 08:00:30;;;;;;;0.90;0.90;;;;;;;;;;5023270;28;20033;-84
2022/02/24 08:02:56;;;;;;;0.80;0.80;;;;;;;;;;5023096;28;20021;-84
2022/02/24 08:05:22;;;;;;;2.60;1.03;;;;;;;;;;5023681;28;20040;-88
2022/02/24 08:07:48;;;;;;;0.80;0.80;;;;;;;;;;5023645;28;20515;-88
2022/02/24 08:10:14;;;;;;;0.60;0.60;;;;;;;;;;5023179;28;20034;-87
2022/02/24 08:12:42;;;;;;;0.80;0.80;;;;;;;;;;5021520;28;20029;-88
2022/02/24 08:15:10;;;;;;;1.00;1.00;;;;;;;;;;5021949;28;20061;-88
2022/02/24 08:17:36;;;;;;;0.60;0.60;;;;;;;;;;5021960;28;20040;-88
2022/02/24 08:20:05;;;;;;;0.80;0.80;;;;;;;;;;5021102;28;20164;-87
2022/02/24 08:22:32;;;;;;;0.93;0.93;;;;;;;;;;5019051;28;20124;-88
2022/02/24 08:24:58;;;;;;;0.80;0.80;;;;;;;;;;5021123;28;20571;-87
2022/02/24 08:27:24;;;;;;;0.70;0.70;;;;;;;;;;5021757;28;20033;-88
2022/02/24 08:29:50;;;;;;;0.93;0.93;;;;;;;;;;5020868;28;20562;-88
2022/02/24 08:32:16;;;;;;;1.10;1.10;;;;;;;;;;5022246;28;20034;-87
2022/02/24 08:34:42;;;;;;;0.90;0.90;;;;;;;;;;5024339;28;20497;-87
2022/02/24 08:37:08;;;;;;;0.90;0.90;;;;;;;;;;5021580;28;20637;-88
2022/02/24 08:39:34;;;;;;;0.80;0.80;;;;;;;;;;5020162;28;20052;-88
2022/02/24 08:42:00;;;;;;;0.60;0.60;;;;;;;;;;5021527;28;20104;-88
2022/02/24 08:44:26;;;;;;;0.93;0.93;;;;;;;;;;5021709;28;20083;-88
2022/02/24 08:46:53;;;;;;;0.93;0.93;;;;;;;;;;5021338;28;20444;-88
2022/02/24 08:49:19;;;;;;;0.98;0.98;;;;;;;;;;5020910;28;20098;-88
2022/02/24 08:51:45;;;;;;;1.17;1.17;;;;;;;;;;5020441;28;20036;-88
2022/02/24 08:54:11;;;;;;;0.60;0.60;;;;;;;;;;5021280;28;20489;-89
2022/02/24 08:56:37;;;;;;;0.50;0.50;;;;;;;;;;5020050;28;20036;-89
2022/02/24 08:59:03;;;;;;;0.97;0.97;;;;;;;;;;5021143;28;20076;-88
2022/02/24 09:01:29;;;;;;;1.10;1.10;;;;;;;;;;5019595;28;20781;-89
2022/02/24 09:03:55;;;;;;;0.90;0.90;;;;;;;;;;5022200;28;20037;-89
2022/02/24 09:06:21;;;;;;;0.70;0.70;;;;;;;;;;5021995;28;20026;-83
2022/02/24 09:08:47;;;;;;;0.77;0.77;;;;;;;;;;5022046;28;20029;-84
2022/02/24 09:11:13;;;;;;;0.60;0.60;;;;;;;;;;5020095;28;20497;-83
2022/02/24 09:13:41;;;;;;;0.50;0.50;;;;;;;;;;5021887;28;20952;-83
2022/02/24 09:16:08;;;;;;;0.70;0.70;;;;;;;;;;5022074;28;20065;-83
2022/02/24 09:18:35;;;;;;;0.80;0.80;;;;;;;;;;5020814;28;20041;-83
2022/02/24 09:21:01;;;;;;;0.77;0.77;;;;;;;;;;5012908;28;20029;-83
2022/02/24 09:23:27;;;;;;;0.30;0.30;;;;;;;;;;5021506;28;20038;-83
2022/02/24 09:26:01;;;;;;;0.32;0.32;;;;;;;;;;5021450;28;20034;-83
2022/02/24 09:28:27;;;;;;;0.93;0.93;;;;;;;;;;5019594;28;20037;-83
2022/02/24 09:30:54;;;;;;;0.40;0.40;;;;;;;;;;5022044;28;20536;-83
2022/02/24 09:33:20;;;;;;;0.38;0.38;;;;;;;;;;5024620;28;20037;-83
2022/02/24 09:35:47;;;;;;;0.30;0.30;;;;;;;;;;5027262;28;20029;-83
2022/02/24 09:38:14;;;;;;;0.30;0.30;;;;;;;;;;5021404;28;20033;-83
2022/02/24 09:40:41;;;;;;;0.30;0.30;;;;;;;;;;5021515;28;20083;-83
2022/02/24 09:43:07;;;;;;;0.40;0.40;;;;;;;;;;5021683;28;20030;-84
2022/02/24 09:45:33;;;;;;;0.80;0.80;;;;;;;;;;5022012;28;20038;-83
2022/02/24 09:48:02;;;;;;;0.40;0.40;;;;;;;;;;5021370;28;20287;-83
2022/02/24 09:50:29;;;;;;;0.50;0.50;;;;;;;;;;5021177;28;20033;-83
2022/02/24 09:52:56;;;;;;;0.50;0.50;;;;;;;;;;5012619;28;20037;-82
2022/02/24 09:55:22;;;;;;;0.68;0.68;;;;;;;;;;5025365;28;20104;-84
2022/02/24 09:57:48;;;;;;;1.13;1.13;;;;;;;;;;5024943;28;20142;-82
2022/02/24 10:00:14;;;;;;;0.68;0.68;;;;;;;;;;5024183;28;20037;-83
2022/02/24 10:02:40;;;;;;;0.68;0.68;;;;;;;;;;5024404;28;20087;-83
2022/02/24 10:05:11;;;;;;;0.50;0.50;;;;;;;;;;5023862;28;20037;-83
2022/02/24 10:07:39;;;;;;;0.50;0.50;;;;;;;;;;5025112;28;20272;-90
2022/02/24 10:10:33;;;;;;;0.90;0.90;;;;;;;;;;5023020;28;20022;-91
2022/02/24 10:13:00;;;;;;;0.60;0.60;;;;;;;;;;5021884;28;20133;-90
2022/02/24 10:15:26;;;;;;;;;;;;;;;;;;5025528;28;20029;-90
2022/02/24 10:18:12;;;;;;;0.70;0.70;;;;;;;;;;5023257;28;19950;-90
2022/02/24 10:20:38;;;;;;;;;;;;;;;;;;5025565;28;20104;-89
2022/02/24 10:23:04;;;;;;;0.88;0.88;;;;;;;;;;5025254;28;20412;-90
2022/02/24 10:25:37;;;;;;;0.90;0.90;;;;;;;;;;5024998;28;20181;-89
2022/02/24 10:28:05;;;;;;;0.63;0.63;;;;;;;;;;5020740;28;20040;-89
2022/02/24 10:30:33;;;;;;;0.60;0.60;;;;;;;;;;5024160;28;20064;-90
2022/02/24 10:33:01;;;;;;;0.50;0.50;;;;;;;;;;5024783;28;20080;-89
2022/02/24 10:35:39;;;;;;;0.60;0.60;;;;;;;;;;5024338;28;20418;-90
2022/02/24 10:38:06;;;;;;;0.52;0.52;;;;;;;;;;5024055;28;20049;-90
2022/02/24 10:40:37;;;;;;;0.52;0.52;;;;;;;;;;5022412;28;20583;-91
2022/02/24 10:43:18;;;;;;;0.60;0.60;;;;;;;;;;5023585;28;20500;-90
2022/02/24 10:45:46;;;;;;;0.50;0.50;;;;;;;;;;5023795;28;20524;-89
2022/02/24 10:48:12;;;;;;;0.60;0.60;;;;;;;;;;5023169;28;20048;-89
2022/02/24 10:50:50;;;;;;;0.50;0.50;;;;;;;;;;5023935;28;20040;-91
2022/02/24 10:53:17;;;;;;;0.60;0.60;;;;;;;;;;5023195;28;20057;-90
2022/02/24 10:55:53;;;;;;;0.40;0.40;;;;;;;;;;5022557;28;20565;-91
2022/02/24 10:58:19;;;;;;;0.70;0.70;;;;;;;;;;5022187;28;20520;-89
2022/02/24 11:00:45;;;;;;;0.60;0.60;;;;;;;;;;5022585;28;20037;-90
2022/02/24 11:03:11;;;;;;;0.43;0.43;;;;;;;;;;5022070;28;20048;-90
2022/02/24 11:05:41;;;;;;;0.70;0.70;;;;;;;;;;5022415;28;20041;-90
2022/02/24 11:08:08;;;;;;;0.70;0.70;;;;;;;;;;5019559;28;20025;-89
2022/02/24 11:10:35;;;;;;;1.25;1.25;;;;;;;;;;5023084;28;20109;-90
2022/02/24 11:13:01;;;;;;;1.00;1.00;;;;;;;;;;5022110;28;20109;-89
2022/02/24 11:15:28;;;;;;;0.70;0.70;;;;;;;;;;5021807;28;20040;-90
2022/02/24 11:17:54;;;;;;;0.80;0.80;;;;;;;;;;5022927;28;20405;-90
2022/02/24 11:20:23;;;;;;;0.77;0.77;;;;;;;;;;5020393;28;20090;-90
2022/02/24 11:22:49;;;;;;;0.95;0.95;;;;;;;;;;5022736;28;20052;-90
2022/02/24 11:25:47;;;;;;;1.42;1.42;;;;;;;;;;5022718;28;20029;-83
2022/02/24 11:28:15;;;;;;;0.75;0.75;;;;;;;;;;5020959;28;20091;-89
2022/02/24 11:30:46;;;;;;;1.00;1.00;;;;;;;;;;5023042;28;20027;-90
2022/02/24 11:33:14;;;;;;;0.70;0.70;;;;;;;;;;5020266;28;20126;-89
2022/02/24 11:35:40;;;;;;;1.08;1.08;;;;;;;;;;5018149;28;20021;-89
2022/02/24 11:38:06;;;;;;;0.93;0.93;;;;;;;;;;5026861;28;20049;-90
2022/02/24 11:40:36;;;;;;;1.83;1.83;;;;;;;;;;5024134;28;20033;-90
2022/02/24 11:43:07;;;;;;;0.88;0.88;;;;;;;;;;5019899;28;20117;-90
2022/02/24 11:45:33;;;;;;;0.90;0.90;;;;;;;;;;5022980;28;20124;-90
2022/02/24 11:47:59;;;;;;;0.90;0.90;;;;;;;;;;5023647;28;20125;-90
2022/02/24 11:50:30;;;;;;;0.87;0.87;;;;;;;;;;5023546;28;20421;-90
2022/02/24 11:52:56;;;;;;;1.40;1.40;;;;;;;;;;5023909;28;20283;-90
2022/02/24 11:55:40;;;;;;;1.00;1.00;;;;;;;;;;5023933;28;20802;-91
2022/02/24 11:58:22;;;;;;;0.80;0.80;;;;;;;;;;5021222;28;20284;-90
2022/02/24 12:01:07;;;;;;;0.90;0.90;;;;;;;;;;5024932;28;20030;-90
2022/02/24 12:03:45;;;;;;;1.02;1.02;;;;;;;;;;5024319;28;20390;-89
2022/02/24 12:06:12;;;;;;;1.17;1.17;;;;;;;;;;5024190;28;20030;-90
2022/02/24 12:08:57;;;;;;;1.20;1.20;;;;;;;;;;5019410;28;20037;-87
2022/02/24 12:11:33;;;;;;;0.68;0.68;;;;;;;;;;5019450;28;20164;-87
2022/02/24 12:14:27;;;;;;;0.70;0.70;;;;;;;;;;5022501;28;20041;-90
2022/02/24 12:17:05;;;;;;;0.65;0.65;;;;;;;;;;5020129;28;20042;-90
2022/02/24 12:19:38;;;;;;;0.75;0.75;;;;;;;;;;5023007;28;20575;-90
2022/02/24 12:22:11;;;;;;;0.50;0.50;;;;;;;;;;5021695;28;20103;-91
2022/02/24 12:24:37;;;;;;;1.15;1.15;;;;;;;;;;5022481;28;20128;-90
2022/02/24 12:27:22;;;;;;;0.80;0.80;;;;;;;;;;5021395;28;20060;-90
2022/02/24 12:29:48;;;;;;;0.90;0.90;;;;;;;;;;5021044;28;20042;-90
2022/02/24 12:32:20;;;;;;;0.80;0.80;;;;;;;;;;5023132;28;20032;-90
2022/02/24 12:34:47;;;;;;;0.70;0.70;;;;;;;;;;5021315;28;20049;-89
2022/02/24 12:37:17;;;;;;;1.30;1.25;;;;;;;;;;5023080;28;20803;-89
2022/02/24 12:39:45;;;;;;;0.75;0.75;;;;;;;;;;5023528;28;20045;-90
2022/02/24 12:42:12;;;;;;;0.65;0.65;;;;;;;;;;5022382;28;20032;-90
2022/02/24 12:44:40;;;;;;;0.60;0.60;;;;;;;;;;5022510;28;20065;-91
2022/02/24 12:47:07;;;;;;;0.60;0.60;;;;;;;;;;5018979;28;20060;-90
2022/02/24 12:49:42;;;;;;;0.70;0.70;;;;;;;;;;5020748;28;20065;-90
2022/02/24 12:52:09;;;;;;;1.00;1.00;;;;;;;;;;5020178;28;20080;-89
2022/02/24 12:54:35;;;;;;;0.75;0.75;;;;;;;;;;5023641;28;20409;-90
2022/02/24 12:57:04;;;;;;;161.75;150.38;;;;;;;;;;5018985;28;20065;-90
2022/02/24 12:59:31;;;;;;;6.40;6.13;;;;;;;;;;5022660;28;20599;-90
2022/02/24 13:01:57;;;;;;;0.20;0.20;;;;;;;;;;5023073;28;20025;-90
2022/02/24 13:04:23;;;;;;;0.10;0.10;;;;;;;;;;5023070;28;20211;-90
2022/02/24 13:06:50;;;;;;;0.10;0.10;;;;;;;;;;5023981;28;20702;-81
2022/02/24 13:12:03;;;;;;;0.43;0.43;;;;;;;;;;5021694;28;20048;-82
2022/02/24 13:14:30;;;;;;;0.20;0.20;;;;;;;;;;5020068;28;20041;-82
2022/02/24 13:16:56;;;;;;;0.50;0.50;;;;;;;;;;5022657;28;20032;-82
2022/02/24 13:19:22;;;;;;;0.73;0.73;;;;;;;;;;5020761;28;20104;-81
2022/02/24 13:21:59;;;;;;;0.82;0.82;;;;;;;;;;5022578;28;20783;-81
2022/02/24 13:24:26;;;;;;;0.80;0.80;;;;;;;;;;5023264;28;20034;-81
2022/02/24 13:26:52;;;;;;;;;;;;;;;;;;5025420;28;20025;-83
2022/02/24 13:29:20;;;;;;;0.60;0.60;;;;;;;;;;5022696;28;19974;-81
2022/02/24 13:31:49;;;;;;;0.70;0.70;;;;;;;;;;5024515;28;20132;-81
2022/02/24 13:34:16;;;;;;;0.50;0.50;;;;;;;;;;5023267;28;20017;-82
2022/02/24 13:36:42;;;;;;;0.60;0.60;;;;;;;;;;5025345;28;20500;-81
2022/02/24 13:39:08;;;;;;;0.70;0.70;;;;;;;;;;5024690;28;20033;-82
2022/02/24 13:41:34;;;;;;;0.63;0.63;;;;;;;;;;5024274;28;21201;-82
2022/02/24 13:44:01;;;;;;;0.50;0.50;;;;;;;;;;5021924;28;20040;-81
2022/02/24 13:46:43;;;;;;;0.50;0.50;;;;;;;;;;5024729;28;20033;-82
2022/02/24 13:49:10;;;;;;;0.50;0.50;;;;;;;;;;5023117;28;20036;-82
2022/02/24 13:51:37;;;;;;;0.50;0.50;;;;;;;;;;5023206;28;20422;-82
2022/02/24 13:54:04;;;;;;;0.80;0.80;;;;;;;;;;5024096;28;20044;-81
2022/02/24 13:56:40;;;;;;;0.80;0.80;;;;;;;;;;5022449;28;20061;-82
2022/02/24 13:59:06;;;;;;;0.80;0.80;;;;;;;;;;5023854;28;20049;-82
2022/02/24 14:01:32;;;;;;;0.70;0.70;;;;;;;;;;5024076;28;20045;-81
2022/02/24 14:04:01;;;;;;;0.70;0.70;;;;;;;;;;5025186;28;20409;-81
2022/02/24 14:06:28;;;;;;;0.70;0.70;;;;;;;;;;5024542;28;20025;-88
2022/02/24 14:08:54;;;;;;;0.90;0.90;;;;;;;;;;5023100;28;20033;-88
2022/02/24 14:11:26;;;;;;;0.60;0.60;;;;;;;;;;5024530;28;20087;-88
2022/02/24 14:13:53;;;;;;;0.50;0.50;;;;;;;;;;5024705;28;20048;-87
2022/02/24 14:16:19;;;;;;;0.52;0.52;;;;;;;;;;5022716;28;20037;-89
2022/02/24 14:18:46;;;;;;;0.45;0.45;;;;;;;;;;5022802;28;20525;-88
2022/02/24 14:21:12;;;;;;;0.57;0.57;;;;;;;;;;5023530;28;20083;-87
2022/02/24 14:23:39;;;;;;;0.63;0.63;;;;;;;;;;5022226;28;20408;-87
2022/02/24 14:26:05;;;;;;;1.20;0.98;;;;;;;;;;5023175;28;20038;-88
2022/02/24 14:28:31;;;;;;;0.60;0.60;;;;;;;;;;5023793;28;20095;-87
2022/02/24 14:30:57;;;;;;;0.53;0.53;;;;;;;;;;5023653;28;20028;-87
2022/02/24 14:33:24;;;;;;;0.60;0.60;;;;;;;;;;5023355;28;20280;-87
2022/02/24 14:35:50;;;;;;;0.63;0.63;;;;;;;;;;5022701;28;20861;-87
2022/02/24 14:38:16;;;;;;;9.02;0.47;;;;;;;;;;5023419;28;20053;-87
2022/02/24 14:40:45;;;;;;;1.45;1.35;;;;;;;;;;5008725;28;20029;-87
2022/02/24 14:43:12;;;;;;;0.20;0.20;;;;;;;;;;5024330;28;20111;-88
2022/02/24 14:45:38;;;;;;;0.20;0.20;;;;;;;;;;5025340;28;20033;-88
2022/02/24 14:48:04;;;;;;;0.25;0.25;;;;;;;;;;5024660;28;20480;-87